createdAt,value
2022-12-24T00:03:18.541Z,12.18
2022-12-24T00:08:20.461Z,12.19
2022-12-24T00:13:22.144Z,12.16
2022-12-24T00:18:23.992Z,12.09
2022-12-24T00:23:25.792Z,12.03
2022-12-24T00:28:27.581Z,12.02
2022-12-24T00:33:29.247Z,12.00
2022-12-24T00:38:31.087Z,12.01
2022-12-24T00:43:32.798Z,11.97
2022-12-24T00:48:34.443Z,12.00
2022-12-24T00:53:36.147Z,11.94
2022-12-24T00:58:37.983Z,11.91
2022-12-24T01:03:39.996Z,11.84
2022-12-24T01:08:42.671Z,11.83
2022-12-24T01:13:44.506Z,11.83
2022-12-24T01:18:46.660Z,11.80
2022-12-24T01:23:49.129Z,11.77
2022-12-24T01:28:50.875Z,11.79
2022-12-24T01:33:52.641Z,11.81
2022-12-24T01:38:54.282Z,11.79
2022-12-24T01:43:55.947Z,11.75
2022-12-24T01:49:04.014Z,11.73
2022-12-24T01:54:32.710Z,11.68
2022-12-24T01:59:36.174Z,11.60
2022-12-24T02:04:47.412Z,11.52
2022-12-24T02:09:53.148Z,11.43
2022-12-24T02:14:55.136Z,11.40
2022-12-24T02:20:08.953Z,11.40
2022-12-24T02:25:20.298Z,11.37
2022-12-24T02:30:23.145Z,11.34
2022-12-24T02:35:35.359Z,11.33
2022-12-24T02:40:42.931Z,11.24
2022-12-24T02:45:50.364Z,11.25
2022-12-24T02:50:57.379Z,11.23
2022-12-24T02:56:46.612Z,11.22
2022-12-24T03:02:05.272Z,11.10
2022-12-24T03:07:27.221Z,11.03
2022-12-24T03:12:41.277Z,11.02
2022-12-24T03:17:47.558Z,11.04
2022-12-24T03:22:49.331Z,10.99
2022-12-24T03:27:51.741Z,10.88
2022-12-24T03:32:53.439Z,10.75
2022-12-24T03:37:55.299Z,10.59
2022-12-24T03:42:57.220Z,10.43
2022-12-24T03:47:58.928Z,10.22
2022-12-24T03:53:00.590Z,10.12
2022-12-24T03:58:02.264Z,10.09
2022-12-24T04:03:04.114Z,10.09
2022-12-24T04:08:06.007Z,10.10
2022-12-24T04:13:07.701Z,10.08
2022-12-24T04:18:09.533Z,10.13
2022-12-24T04:23:11.217Z,10.13
2022-12-24T04:28:13.894Z,10.14
2022-12-24T04:33:15.639Z,10.22
2022-12-24T04:38:17.442Z,10.28
2022-12-24T04:43:19.143Z,10.30
2022-12-24T04:48:21.188Z,10.33
2022-12-24T04:53:22.891Z,10.29
2022-12-24T04:58:25.355Z,10.30
2022-12-24T05:03:27.305Z,10.31
2022-12-24T05:08:29.412Z,10.30
2022-12-24T05:13:39.140Z,10.30
2022-12-24T05:18:46.432Z,10.35
2022-12-24T05:24:08.760Z,10.40
2022-12-24T05:29:12.287Z,10.44
2022-12-24T05:34:15.589Z,10.47
2022-12-24T05:39:18.470Z,10.46
2022-12-24T05:44:20.156Z,10.49
2022-12-24T05:49:21.808Z,10.45
2022-12-24T05:54:23.648Z,10.47
2022-12-24T05:59:25.243Z,10.45
2022-12-24T06:04:29.279Z,10.41
2022-12-24T06:09:31.287Z,10.41
2022-12-24T06:14:32.948Z,10.42
2022-12-24T06:19:34.596Z,10.42
2022-12-24T06:24:36.472Z,10.38
2022-12-24T06:29:38.185Z,10.44
2022-12-24T06:34:39.839Z,10.45
2022-12-24T06:39:41.512Z,10.44
2022-12-24T06:44:43.185Z,10.47
2022-12-24T06:49:45.433Z,10.38
2022-12-24T06:54:47.161Z,10.48
2022-12-24T06:59:48.863Z,10.52
2022-12-24T07:04:50.540Z,10.47
2022-12-24T07:09:52.219Z,10.45
2022-12-24T07:14:53.867Z,10.45
2022-12-24T07:19:55.657Z,10.39
2022-12-24T07:24:57.471Z,10.32
2022-12-24T07:29:59.332Z,10.30
2022-12-24T07:35:01.079Z,10.28
2022-12-24T07:40:06.236Z,10.18
2022-12-24T07:45:08.758Z,10.10
2022-12-24T07:50:11.170Z,10.05
2022-12-24T07:55:13.665Z,10.12
2022-12-24T08:00:15.934Z,10.11
2022-12-24T08:05:17.678Z,10.11
2022-12-24T08:10:19.459Z,10.19
2022-12-24T08:15:21.253Z,10.26
2022-12-24T08:20:22.932Z,10.27
2022-12-24T08:25:24.563Z,10.27
2022-12-24T08:30:26.477Z,10.28
2022-12-24T08:35:28.393Z,10.28
2022-12-24T08:40:30.251Z,10.29
2022-12-24T08:45:37.910Z,10.27
2022-12-24T08:50:42.426Z,10.28
2022-12-24T08:55:44.786Z,10.31
2022-12-24T09:00:47.690Z,10.36
2022-12-24T09:05:49.533Z,10.40
2022-12-24T09:10:51.264Z,10.44
2022-12-24T09:15:56.246Z,10.48
2022-12-24T09:21:07.078Z,10.53
2022-12-24T09:26:12.110Z,10.59
2022-12-24T09:31:14.264Z,10.65
2022-12-24T09:36:16.097Z,10.69
2022-12-24T09:41:45.515Z,10.79
2022-12-24T09:46:49.489Z,10.86
2022-12-24T09:52:00.400Z,10.95
2022-12-24T09:57:08.237Z,11.00
2022-12-24T10:02:19.962Z,11.04
2022-12-24T10:07:43.995Z,11.08
2022-12-24T10:12:57.292Z,11.01
2022-12-24T10:18:10.988Z,11.08
2022-12-24T10:23:34.409Z,11.23
2022-12-24T10:28:41.957Z,11.40
2022-12-24T10:33:49.910Z,11.42
2022-12-24T10:38:51.587Z,11.42
2022-12-24T10:43:54.160Z,11.41
2022-12-24T10:49:05.150Z,11.51
2022-12-24T10:54:13.452Z,11.61
2022-12-24T10:59:33.802Z,11.72
2022-12-24T11:04:49.393Z,11.79
2022-12-24T11:09:57.541Z,11.82
2022-12-24T11:15:16.102Z,11.88
2022-12-24T11:20:22.777Z,11.91
2022-12-24T11:25:31.629Z,11.91
2022-12-24T11:30:33.872Z,12.00
2022-12-24T11:35:41.504Z,12.04
2022-12-24T11:40:47.429Z,12.04
2022-12-24T11:45:57.350Z,12.03
2022-12-24T11:51:05.572Z,12.08
2022-12-24T11:56:17.412Z,12.19
2022-12-24T12:01:33.495Z,12.25
2022-12-24T12:06:55.497Z,12.33
2022-12-24T12:12:12.497Z,12.38
2022-12-24T12:17:26.182Z,12.36
2022-12-24T12:22:35.675Z,12.33
2022-12-24T12:27:46.023Z,12.23
2022-12-24T12:33:05.940Z,12.30
2022-12-24T12:38:25.251Z,12.28
2022-12-24T12:44:01.875Z,12.46
2022-12-24T12:49:48.945Z,12.68
2022-12-24T12:54:59.643Z,12.60
2022-12-24T13:00:11.763Z,12.52
2022-12-24T13:05:50.904Z,12.65
2022-12-24T13:11:12.791Z,12.57
2022-12-24T13:16:38.999Z,12.46
2022-12-24T13:21:46.063Z,12.35
2022-12-24T13:27:15.565Z,12.25
2022-12-24T13:32:20.141Z,12.18
2022-12-24T13:37:43.297Z,12.14
2022-12-24T13:43:01.246Z,12.06
2022-12-24T13:48:05.983Z,11.96
2022-12-24T13:53:25.417Z,11.92
2022-12-24T13:58:27.525Z,11.91
2022-12-24T14:03:41.609Z,11.89
2022-12-24T14:08:46.023Z,11.84
2022-12-24T14:13:51.526Z,11.79
2022-12-24T14:19:14.489Z,11.77
2022-12-24T14:24:17.882Z,11.74
2022-12-24T14:29:27.469Z,11.69
2022-12-24T14:34:29.481Z,11.67
2022-12-24T14:39:34.404Z,11.64
2022-12-24T14:44:57.094Z,11.56
2022-12-24T14:50:05.540Z,11.51
2022-12-24T14:55:32.018Z,11.43
2022-12-24T15:00:39.294Z,11.38
2022-12-24T15:05:42.389Z,11.30
2022-12-24T15:10:45.183Z,11.26
2022-12-24T15:15:53.393Z,11.28
2022-12-24T15:21:03.663Z,11.27
2022-12-24T15:26:18.930Z,11.28
2022-12-24T15:31:23.082Z,11.28
2022-12-24T15:36:37.709Z,11.22
2022-12-24T15:42:02.351Z,11.14
2022-12-24T15:47:08.462Z,11.10
2022-12-24T15:52:15.693Z,11.06
2022-12-24T15:57:32.322Z,11.01
2022-12-24T16:02:41.687Z,10.98
2022-12-24T16:08:09.088Z,10.96
2022-12-24T16:13:18.563Z,10.95
2022-12-24T16:18:32.175Z,10.93
2022-12-24T16:23:47.302Z,10.95
2022-12-24T16:28:49.378Z,11.02
2022-12-24T16:33:53.002Z,11.04
2022-12-24T16:39:13.075Z,11.07
2022-12-24T16:44:14.738Z,10.98
2022-12-24T16:49:18.584Z,10.91
2022-12-24T16:54:20.228Z,10.89
2022-12-24T16:59:23.792Z,10.84
2022-12-24T17:04:25.483Z,10.82
2022-12-24T17:09:27.131Z,10.77
2022-12-24T17:14:28.956Z,10.71
2022-12-24T17:19:30.621Z,10.65
2022-12-24T17:24:32.317Z,10.59
2022-12-24T17:29:34.002Z,10.58
2022-12-24T17:34:35.739Z,10.54
2022-12-24T17:39:37.491Z,10.52
2022-12-24T17:44:39.301Z,10.48
2022-12-24T17:49:40.994Z,10.46
2022-12-24T17:54:42.688Z,10.39
2022-12-24T17:59:44.604Z,10.33
2022-12-24T18:04:46.385Z,10.35
2022-12-24T18:09:48.052Z,10.36
2022-12-24T18:14:49.837Z,10.37
2022-12-24T18:19:51.581Z,10.38
2022-12-24T18:24:53.321Z,10.50
2022-12-24T18:29:54.967Z,10.52
2022-12-24T18:34:56.723Z,10.51
2022-12-24T18:39:58.517Z,10.51
2022-12-24T18:45:00.312Z,10.51
2022-12-24T18:50:02.168Z,10.38
2022-12-24T18:55:04.128Z,10.24
2022-12-24T19:00:06.772Z,10.12
2022-12-24T19:05:08.504Z,9.92
2022-12-24T19:10:10.900Z,9.91
2022-12-24T19:15:12.927Z,9.93
2022-12-24T19:20:14.705Z,10.00
2022-12-24T19:25:16.475Z,9.98
2022-12-24T19:30:18.251Z,9.80
2022-12-24T19:35:20.181Z,9.80
2022-12-24T19:40:21.807Z,9.66
2022-12-24T19:45:23.952Z,9.59
2022-12-24T19:50:25.708Z,9.58
2022-12-24T19:55:28.039Z,9.57
2022-12-24T20:00:29.841Z,9.46
2022-12-24T20:05:31.499Z,9.53
2022-12-24T20:10:38.838Z,9.58
2022-12-24T20:15:42.881Z,9.62
2022-12-24T20:20:44.588Z,9.62
2022-12-24T20:25:46.188Z,9.51
2022-12-24T20:30:47.838Z,9.49
2022-12-24T20:35:50.137Z,9.51
2022-12-24T20:40:56.035Z,9.43
2022-12-24T20:45:57.812Z,9.52
2022-12-24T20:50:59.935Z,9.64
2022-12-24T20:56:02.183Z,9.74
2022-12-24T21:01:12.841Z,9.68
2022-12-24T21:06:17.702Z,9.61
2022-12-24T21:11:39.394Z,9.57
2022-12-24T21:16:43.326Z,9.46
2022-12-24T21:21:45.124Z,9.33
2022-12-24T21:26:46.839Z,9.23
2022-12-24T21:31:49.940Z,9.16
2022-12-24T21:36:51.711Z,9.14
2022-12-24T21:41:53.380Z,9.12
2022-12-24T21:46:55.089Z,9.12
2022-12-24T21:51:58.790Z,8.98
2022-12-24T21:57:22.325Z,8.96
2022-12-24T22:02:27.605Z,8.89
2022-12-24T22:07:48.035Z,8.98
2022-12-24T22:12:49.656Z,9.09
2022-12-24T22:17:51.427Z,9.17
2022-12-24T22:22:53.076Z,9.10
2022-12-24T22:27:55.493Z,9.09
2022-12-24T22:32:58.590Z,9.05
2022-12-24T22:38:00.585Z,9.05
2022-12-24T22:43:02.481Z,9.06
2022-12-24T22:48:04.450Z,9.12
2022-12-24T22:53:06.206Z,9.18
2022-12-24T22:58:07.895Z,9.22
2022-12-24T23:03:10.991Z,9.24
2022-12-24T23:08:13.844Z,9.27
2022-12-24T23:13:34.501Z,9.22
2022-12-24T23:18:36.136Z,9.19
2022-12-24T23:23:37.825Z,9.24
2022-12-24T23:28:40.157Z,9.33
2022-12-24T23:33:42.689Z,9.44
2022-12-24T23:38:44.476Z,9.43
2022-12-24T23:43:46.794Z,9.36
2022-12-24T23:48:48.802Z,9.37
2022-12-24T23:53:55.605Z,9.40
2022-12-24T23:58:57.233Z,9.25
